Terminal Aerodrome Forecast
Issued by NWS Billings, MT

Home | Current Version | Previous Version | Text Only | Print | Product List | Glossary Off
Versions: 1 2 3 4 5 6 7 8 9 10 11 12 13 14 15 16 17 18 19 20 21 22 23 24 25 26 27 28 29 30 31 32 33 34 35 36 37 38 39 40 41 42 43 44

000
FTUS45 KBYZ 240833 AAA
TAFMLS
TAF AMD
KMLS 240833Z 2409/2506 31009KT P6SM -RA OVC006
     FM241100 VRB05KT P6SM VCSH SCT025 OVC035
     FM241500 32011KT P6SM FEW020 SCT040
     FM242100 06010KT P6SM VCTS SCT025CB BKN060
     FM250300 06010KT P6SM VCSH SCT025 BKN040=

USA.gov is the U.S. government's official web portal to all federal, state and local government web resources and services.